sensor_id;sensor_type;location;lat;lon;timestamp;P1;durP1;ratioP1;P2;durP2;ratioP2
7267;SDS011;3675;43.276;27.962;2022-09-09T00:00:14;0.90;;;0.90;;
7267;SDS011;3675;43.276;27.962;2022-09-09T00:02:54;0.98;;;0.93;;
7267;SDS011;3675;43.276;27.962;2022-09-09T00:05:39;0.82;;;0.82;;
7267;SDS011;3675;43.276;27.962;2022-09-09T00:08:19;1.08;;;1.08;;
7267;SDS011;3675;43.276;27.962;2022-09-09T00:10:45;1.38;;;1.25;;
7267;SDS011;3675;43.276;27.962;2022-09-09T00:13:25;1.15;;;0.77;;
7267;SDS011;3675;43.276;27.962;2022-09-09T00:21:35;0.63;;;0.63;;
7267;SDS011;3675;43.276;27.962;2022-09-09T00:24:08;0.60;;;0.60;;
7267;SDS011;3675;43.276;27.962;2022-09-09T00:26:40;0.75;;;0.75;;
7267;SDS011;3675;43.276;27.962;2022-09-09T00:31:37;0.80;;;0.77;;
7267;SDS011;3675;43.276;27.962;2022-09-09T00:34:13;0.90;;;0.90;;
7267;SDS011;3675;43.276;27.962;2022-09-09T00:36:41;1.05;;;1.00;;
7267;SDS011;3675;43.276;27.962;2022-09-09T00:39:13;0.90;;;0.90;;
7267;SDS011;3675;43.276;27.962;2022-09-09T00:44:32;3.47;;;0.77;;
7267;SDS011;3675;43.276;27.962;2022-09-09T00:57:40;0.90;;;0.90;;
7267;SDS011;3675;43.276;27.962;2022-09-09T01:00:17;0.50;;;0.50;;
7267;SDS011;3675;43.276;27.962;2022-09-09T01:06:34;0.52;;;0.52;;
7267;SDS011;3675;43.276;27.962;2022-09-09T01:19:47;2.75;;;0.93;;
7267;SDS011;3675;43.276;27.962;2022-09-09T01:27:37;1.08;;;1.08;;
7267;SDS011;3675;43.276;27.962;2022-09-09T01:30:08;0.63;;;0.63;;
7267;SDS011;3675;43.276;27.962;2022-09-09T01:32:40;1.38;;;0.90;;
7267;SDS011;3675;43.276;27.962;2022-09-09T01:38:02;0.65;;;0.65;;
7267;SDS011;3675;43.276;27.962;2022-09-09T01:40:27;0.80;;;0.80;;
7267;SDS011;3675;43.276;27.962;2022-09-09T01:42:53;1.27;;;0.60;;
7267;SDS011;3675;43.276;27.962;2022-09-09T01:45:19;0.95;;;0.95;;
7267;SDS011;3675;43.276;27.962;2022-09-09T01:47:46;0.95;;;0.75;;
7267;SDS011;3675;43.276;27.962;2022-09-09T01:50:12;0.93;;;0.73;;
7267;SDS011;3675;43.276;27.962;2022-09-09T01:52:41;0.88;;;0.88;;
7267;SDS011;3675;43.276;27.962;2022-09-09T01:55:08;0.80;;;0.80;;
7267;SDS011;3675;43.276;27.962;2022-09-09T01:57:39;1.85;;;1.02;;
7267;SDS011;3675;43.276;27.962;2022-09-09T02:00:33;1.15;;;1.15;;
7267;SDS011;3675;43.276;27.962;2022-09-09T02:08:07;0.90;;;0.90;;
7267;SDS011;3675;43.276;27.962;2022-09-09T02:10:39;0.65;;;0.65;;
7267;SDS011;3675;43.276;27.962;2022-09-09T02:13:13;1.42;;;0.77;;
7267;SDS011;3675;43.276;27.962;2022-09-09T02:18:19;0.77;;;0.77;;
7267;SDS011;3675;43.276;27.962;2022-09-09T02:20:49;0.65;;;0.65;;
7267;SDS011;3675;43.276;27.962;2022-09-09T02:23:16;0.70;;;0.70;;
7267;SDS011;3675;43.276;27.962;2022-09-09T02:25:43;0.93;;;0.65;;
7267;SDS011;3675;43.276;27.962;2022-09-09T02:28:09;0.95;;;0.95;;
7267;SDS011;3675;43.276;27.962;2022-09-09T02:30:35;2.63;;;0.85;;
7267;SDS011;3675;43.276;27.962;2022-09-09T02:33:03;2.20;;;0.98;;
7267;SDS011;3675;43.276;27.962;2022-09-09T02:35:30;0.65;;;0.65;;
7267;SDS011;3675;43.276;27.962;2022-09-09T02:37:59;0.90;;;0.90;;
7267;SDS011;3675;43.276;27.962;2022-09-09T02:40:26;0.70;;;0.57;;
7267;SDS011;3675;43.276;27.962;2022-09-09T02:42:53;0.80;;;0.80;;
7267;SDS011;3675;43.276;27.962;2022-09-09T02:45:20;1.15;;;1.13;;
7267;SDS011;3675;43.276;27.962;2022-09-09T02:47:57;0.65;;;0.65;;
7267;SDS011;3675;43.276;27.962;2022-09-09T02:50:30;0.85;;;0.85;;
7267;SDS011;3675;43.276;27.962;2022-09-09T02:53:17;1.10;;;1.00;;
7267;SDS011;3675;43.276;27.962;2022-09-09T02:58:25;0.65;;;0.65;;
7267;SDS011;3675;43.276;27.962;2022-09-09T03:00:51;0.95;;;0.95;;
7267;SDS011;3675;43.276;27.962;2022-09-09T03:03:18;0.75;;;0.75;;
7267;SDS011;3675;43.276;27.962;2022-09-09T03:05:44;1.33;;;1.17;;
7267;SDS011;3675;43.276;27.962;2022-09-09T03:08:10;0.93;;;0.93;;
7267;SDS011;3675;43.276;27.962;2022-09-09T03:10:38;1.00;;;1.00;;
7267;SDS011;3675;43.276;27.962;2022-09-09T03:13:03;0.82;;;0.82;;
7267;SDS011;3675;43.276;27.962;2022-09-09T03:15:30;1.02;;;0.93;;
7267;SDS011;3675;43.276;27.962;2022-09-09T03:17:57;0.93;;;0.90;;
7267;SDS011;3675;43.276;27.962;2022-09-09T03:20:24;0.70;;;0.70;;
7267;SDS011;3675;43.276;27.962;2022-09-09T03:22:53;0.90;;;0.90;;
7267;SDS011;3675;43.276;27.962;2022-09-09T03:25:19;1.05;;;0.60;;
7267;SDS011;3675;43.276;27.962;2022-09-09T03:27:46;0.75;;;0.75;;
7267;SDS011;3675;43.276;27.962;2022-09-09T03:30:12;0.80;;;0.80;;
7267;SDS011;3675;43.276;27.962;2022-09-09T03:32:38;0.80;;;0.80;;
7267;SDS011;3675;43.276;27.962;2022-09-09T03:35:05;1.00;;;0.88;;
7267;SDS011;3675;43.276;27.962;2022-09-09T03:37:31;0.65;;;0.65;;
7267;SDS011;3675;43.276;27.962;2022-09-09T03:39:57;1.30;;;0.82;;
7267;SDS011;3675;43.276;27.962;2022-09-09T03:42:22;4.15;;;0.90;;
7267;SDS011;3675;43.276;27.962;2022-09-09T03:44:48;0.88;;;0.88;;
7267;SDS011;3675;43.276;27.962;2022-09-09T03:47:21;1.67;;;0.80;;
7267;SDS011;3675;43.276;27.962;2022-09-09T03:49:47;1.33;;;1.20;;
7267;SDS011;3675;43.276;27.962;2022-09-09T03:52:14;1.10;;;1.02;;
7267;SDS011;3675;43.276;27.962;2022-09-09T03:54:41;0.80;;;0.80;;
7267;SDS011;3675;43.276;27.962;2022-09-09T03:57:08;1.35;;;0.88;;
7267;SDS011;3675;43.276;27.962;2022-09-09T03:59:35;0.88;;;0.88;;
7267;SDS011;3675;43.276;27.962;2022-09-09T04:02:04;1.20;;;0.80;;
7267;SDS011;3675;43.276;27.962;2022-09-09T04:04:30;0.75;;;0.75;;
7267;SDS011;3675;43.276;27.962;2022-09-09T04:06:57;0.80;;;0.80;;
7267;SDS011;3675;43.276;27.962;2022-09-09T04:09:22;1.38;;;0.80;;
7267;SDS011;3675;43.276;27.962;2022-09-09T04:11:48;0.68;;;0.68;;
7267;SDS011;3675;43.276;27.962;2022-09-09T04:14:14;0.93;;;0.93;;
7267;SDS011;3675;43.276;27.962;2022-09-09T04:16:40;1.83;;;1.00;;
7267;SDS011;3675;43.276;27.962;2022-09-09T04:19:08;1.27;;;0.85;;
7267;SDS011;3675;43.276;27.962;2022-09-09T04:21:37;1.52;;;0.90;;
7267;SDS011;3675;43.276;27.962;2022-09-09T04:24:05;1.60;;;0.80;;
7267;SDS011;3675;43.276;27.962;2022-09-09T04:26:30;0.68;;;0.68;;
7267;SDS011;3675;43.276;27.962;2022-09-09T04:28:56;0.75;;;0.75;;
7267;SDS011;3675;43.276;27.962;2022-09-09T04:31:22;0.80;;;0.80;;
7267;SDS011;3675;43.276;27.962;2022-09-09T04:33:51;0.80;;;0.80;;
7267;SDS011;3675;43.276;27.962;2022-09-09T04:36:17;1.08;;;1.08;;
7267;SDS011;3675;43.276;27.962;2022-09-09T04:38:44;2.78;;;1.00;;
7267;SDS011;3675;43.276;27.962;2022-09-09T04:41:10;1.38;;;0.80;;
7267;SDS011;3675;43.276;27.962;2022-09-09T04:43:36;1.25;;;1.13;;
7267;SDS011;3675;43.276;27.962;2022-09-09T04:46:05;0.90;;;0.90;;
7267;SDS011;3675;43.276;27.962;2022-09-09T04:48:31;5.00;;;1.30;;
7267;SDS011;3675;43.276;27.962;2022-09-09T04:50:57;0.60;;;0.60;;
7267;SDS011;3675;43.276;27.962;2022-09-09T04:53:24;1.00;;;1.00;;
7267;SDS011;3675;43.276;27.962;2022-09-09T04:55:50;1.10;;;1.10;;
7267;SDS011;3675;43.276;27.962;2022-09-09T04:58:16;0.88;;;0.88;;
7267;SDS011;3675;43.276;27.962;2022-09-09T05:00:42;0.88;;;0.88;;
7267;SDS011;3675;43.276;27.962;2022-09-09T05:03:07;0.77;;;0.77;;
7267;SDS011;3675;43.276;27.962;2022-09-09T05:05:34;0.85;;;0.80;;
7267;SDS011;3675;43.276;27.962;2022-09-09T05:08:06;1.17;;;1.17;;
7267;SDS011;3675;43.276;27.962;2022-09-09T05:10:33;0.93;;;0.55;;
7267;SDS011;3675;43.276;27.962;2022-09-09T05:13:04;0.88;;;0.88;;
7267;SDS011;3675;43.276;27.962;2022-09-09T05:15:30;0.70;;;0.70;;
7267;SDS011;3675;43.276;27.962;2022-09-09T05:17:59;0.75;;;0.75;;
7267;SDS011;3675;43.276;27.962;2022-09-09T05:20:26;1.67;;;0.70;;
7267;SDS011;3675;43.276;27.962;2022-09-09T05:22:55;0.60;;;0.60;;
7267;SDS011;3675;43.276;27.962;2022-09-09T05:25:21;0.60;;;0.60;;
7267;SDS011;3675;43.276;27.962;2022-09-09T05:27:47;0.95;;;0.88;;
7267;SDS011;3675;43.276;27.962;2022-09-09T05:30:13;0.93;;;0.93;;
7267;SDS011;3675;43.276;27.962;2022-09-09T05:32:39;0.88;;;0.88;;
7267;SDS011;3675;43.276;27.962;2022-09-09T05:35:06;0.90;;;0.90;;
7267;SDS011;3675;43.276;27.962;2022-09-09T05:37:38;1.23;;;0.63;;
7267;SDS011;3675;43.276;27.962;2022-09-09T05:40:05;3.25;;;1.05;;
7267;SDS011;3675;43.276;27.962;2022-09-09T05:42:31;1.10;;;0.90;;
7267;SDS011;3675;43.276;27.962;2022-09-09T05:44:57;0.65;;;0.65;;
7267;SDS011;3675;43.276;27.962;2022-09-09T05:47:23;0.73;;;0.73;;
7267;SDS011;3675;43.276;27.962;2022-09-09T05:49:48;0.75;;;0.75;;
7267;SDS011;3675;43.276;27.962;2022-09-09T05:52:14;1.58;;;1.00;;
7267;SDS011;3675;43.276;27.962;2022-09-09T05:54:40;1.23;;;1.23;;
7267;SDS011;3675;43.276;27.962;2022-09-09T05:57:06;2.05;;;0.80;;
7267;SDS011;3675;43.276;27.962;2022-09-09T05:59:32;0.98;;;0.98;;
7267;SDS011;3675;43.276;27.962;2022-09-09T06:01:57;0.82;;;0.82;;
7267;SDS011;3675;43.276;27.962;2022-09-09T06:04:23;0.90;;;0.90;;
7267;SDS011;3675;43.276;27.962;2022-09-09T06:06:49;1.02;;;1.00;;
7267;SDS011;3675;43.276;27.962;2022-09-09T06:09:15;0.88;;;0.80;;
7267;SDS011;3675;43.276;27.962;2022-09-09T06:11:41;2.45;;;0.80;;
7267;SDS011;3675;43.276;27.962;2022-09-09T06:14:07;0.75;;;0.75;;
7267;SDS011;3675;43.276;27.962;2022-09-09T06:16:33;1.65;;;0.75;;
7267;SDS011;3675;43.276;27.962;2022-09-09T06:19:00;0.70;;;0.70;;
7267;SDS011;3675;43.276;27.962;2022-09-09T06:21:31;1.55;;;0.82;;
7267;SDS011;3675;43.276;27.962;2022-09-09T06:24:02;1.20;;;0.90;;
7267;SDS011;3675;43.276;27.962;2022-09-09T06:26:32;0.77;;;0.77;;
7267;SDS011;3675;43.276;27.962;2022-09-09T06:28:58;1.45;;;1.35;;
7267;SDS011;3675;43.276;27.962;2022-09-09T06:31:25;1.63;;;1.52;;
7267;SDS011;3675;43.276;27.962;2022-09-09T06:33:55;1.65;;;1.55;;
7267;SDS011;3675;43.276;27.962;2022-09-09T06:36:22;1.20;;;1.20;;
7267;SDS011;3675;43.276;27.962;2022-09-09T06:38:52;1.52;;;1.45;;
7267;SDS011;3675;43.276;27.962;2022-09-09T06:41:18;0.90;;;0.90;;
7267;SDS011;3675;43.276;27.962;2022-09-09T06:43:47;0.70;;;0.70;;
7267;SDS011;3675;43.276;27.962;2022-09-09T06:46:20;1.42;;;0.77;;
7267;SDS011;3675;43.276;27.962;2022-09-09T06:48:55;0.85;;;0.85;;
7267;SDS011;3675;43.276;27.962;2022-09-09T06:51:23;0.68;;;0.68;;
7267;SDS011;3675;43.276;27.962;2022-09-09T06:53:51;0.63;;;0.63;;
7267;SDS011;3675;43.276;27.962;2022-09-09T06:56:21;0.77;;;0.77;;
7267;SDS011;3675;43.276;27.962;2022-09-09T06:58:51;0.93;;;0.93;;
7267;SDS011;3675;43.276;27.962;2022-09-09T07:01:17;1.00;;;1.00;;
7267;SDS011;3675;43.276;27.962;2022-09-09T07:03:48;0.80;;;0.80;;
7267;SDS011;3675;43.276;27.962;2022-09-09T07:06:19;1.45;;;0.77;;
7267;SDS011;3675;43.276;27.962;2022-09-09T07:08:53;0.90;;;0.90;;
7267;SDS011;3675;43.276;27.962;2022-09-09T07:11:21;0.80;;;0.80;;
7267;SDS011;3675;43.276;27.962;2022-09-09T07:13:47;0.52;;;0.52;;
7267;SDS011;3675;43.276;27.962;2022-09-09T07:16:15;0.55;;;0.55;;
7267;SDS011;3675;43.276;27.962;2022-09-09T07:18:49;0.90;;;0.90;;
7267;SDS011;3675;43.276;27.962;2022-09-09T07:21:15;1.15;;;1.05;;
7267;SDS011;3675;43.276;27.962;2022-09-09T07:23:41;1.00;;;0.80;;
7267;SDS011;3675;43.276;27.962;2022-09-09T07:26:14;0.60;;;0.60;;
7267;SDS011;3675;43.276;27.962;2022-09-09T07:28:41;0.93;;;0.70;;
7267;SDS011;3675;43.276;27.962;2022-09-09T07:31:17;0.77;;;0.77;;
7267;SDS011;3675;43.276;27.962;2022-09-09T07:33:44;0.73;;;0.73;;
7267;SDS011;3675;43.276;27.962;2022-09-09T07:36:16;0.75;;;0.75;;
7267;SDS011;3675;43.276;27.962;2022-09-09T07:38:51;1.48;;;1.38;;
7267;SDS011;3675;43.276;27.962;2022-09-09T07:41:25;2.97;;;1.02;;
7267;SDS011;3675;43.276;27.962;2022-09-09T07:43:52;1.10;;;1.02;;
7267;SDS011;3675;43.276;27.962;2022-09-09T07:46:22;1.13;;;0.88;;
7267;SDS011;3675;43.276;27.962;2022-09-09T07:48:56;5.22;;;1.08;;
7267;SDS011;3675;43.276;27.962;2022-09-09T07:51:24;0.75;;;0.75;;
7267;SDS011;3675;43.276;27.962;2022-09-09T07:53:58;0.60;;;0.60;;
7267;SDS011;3675;43.276;27.962;2022-09-09T07:56:27;2.03;;;0.93;;
7267;SDS011;3675;43.276;27.962;2022-09-09T07:58:54;0.70;;;0.70;;
7267;SDS011;3675;43.276;27.962;2022-09-09T08:03:55;0.98;;;0.68;;
7267;SDS011;3675;43.276;27.962;2022-09-09T08:06:29;0.45;;;0.45;;
7267;SDS011;3675;43.276;27.962;2022-09-09T08:08:59;1.73;;;0.65;;
7267;SDS011;3675;43.276;27.962;2022-09-09T08:11:34;0.68;;;0.68;;
7267;SDS011;3675;43.276;27.962;2022-09-09T08:14:01;0.80;;;0.80;;
7267;SDS011;3675;43.276;27.962;2022-09-09T08:16:28;1.15;;;1.05;;
7267;SDS011;3675;43.276;27.962;2022-09-09T08:21:48;2.05;;;0.85;;
7267;SDS011;3675;43.276;27.962;2022-09-09T08:24:17;1.05;;;0.70;;
7267;SDS011;3675;43.276;27.962;2022-09-09T08:26:45;0.55;;;0.55;;
7267;SDS011;3675;43.276;27.962;2022-09-09T08:29:36;1.00;;;0.90;;
7267;SDS011;3675;43.276;27.962;2022-09-09T08:32:02;0.75;;;0.75;;
7267;SDS011;3675;43.276;27.962;2022-09-09T08:34:29;1.38;;;1.33;;
7267;SDS011;3675;43.276;27.962;2022-09-09T08:36:56;1.42;;;1.35;;
7267;SDS011;3675;43.276;27.962;2022-09-09T08:39:21;1.05;;;1.00;;
7267;SDS011;3675;43.276;27.962;2022-09-09T08:50:29;1.27;;;0.65;;
7267;SDS011;3675;43.276;27.962;2022-09-09T08:55:44;0.70;;;0.70;;
7267;SDS011;3675;43.276;27.962;2022-09-09T08:58:21;0.73;;;0.73;;
7267;SDS011;3675;43.276;27.962;2022-09-09T09:01:36;1.27;;;0.90;;
7267;SDS011;3675;43.276;27.962;2022-09-09T09:11:56;0.82;;;0.82;;
7267;SDS011;3675;43.276;27.962;2022-09-09T09:14:26;0.80;;;0.80;;
7267;SDS011;3675;43.276;27.962;2022-09-09T09:17:09;0.60;;;0.60;;
7267;SDS011;3675;43.276;27.962;2022-09-09T09:19:38;1.13;;;0.85;;
7267;SDS011;3675;43.276;27.962;2022-09-09T09:27:40;1.75;;;0.82;;
7267;SDS011;3675;43.276;27.962;2022-09-09T09:33:18;0.75;;;0.75;;
7267;SDS011;3675;43.276;27.962;2022-09-09T09:36:04;0.68;;;0.68;;
7267;SDS011;3675;43.276;27.962;2022-09-09T09:38:33;0.70;;;0.70;;
7267;SDS011;3675;43.276;27.962;2022-09-09T09:41:00;0.80;;;0.80;;
7267;SDS011;3675;43.276;27.962;2022-09-09T09:43:31;0.63;;;0.63;;
7267;SDS011;3675;43.276;27.962;2022-09-09T09:46:00;0.93;;;0.88;;
7267;SDS011;3675;43.276;27.962;2022-09-09T09:48:31;1.85;;;0.60;;
7267;SDS011;3675;43.276;27.962;2022-09-09T09:50:58;0.60;;;0.60;;
7267;SDS011;3675;43.276;27.962;2022-09-09T09:53:31;2.45;;;0.65;;
7267;SDS011;3675;43.276;27.962;2022-09-09T09:55:59;0.65;;;0.65;;
7267;SDS011;3675;43.276;27.962;2022-09-09T09:58:30;0.75;;;0.50;;
7267;SDS011;3675;43.276;27.962;2022-09-09T10:01:54;0.75;;;0.75;;
7267;SDS011;3675;43.276;27.962;2022-09-09T10:04:02;3.45;;;0.90;;
7267;SDS011;3675;43.276;27.962;2022-09-09T10:06:47;3.65;;;1.02;;
7267;SDS011;3675;43.276;27.962;2022-09-09T10:17:30;0.68;;;0.60;;
7267;SDS011;3675;43.276;27.962;2022-09-09T10:22:47;2.15;;;1.40;;
7267;SDS011;3675;43.276;27.962;2022-09-09T10:25:38;0.65;;;0.60;;
7267;SDS011;3675;43.276;27.962;2022-09-09T10:34:37;0.60;;;0.60;;
7267;SDS011;3675;43.276;27.962;2022-09-09T10:37:49;0.95;;;0.60;;
7267;SDS011;3675;43.276;27.962;2022-09-09T10:40:32;0.68;;;0.68;;
7267;SDS011;3675;43.276;27.962;2022-09-09T10:43:01;0.63;;;0.57;;
7267;SDS011;3675;43.276;27.962;2022-09-09T10:51:33;0.73;;;0.73;;
7267;SDS011;3675;43.276;27.962;2022-09-09T10:56:39;0.85;;;0.80;;
7267;SDS011;3675;43.276;27.962;2022-09-09T10:59:09;0.90;;;0.90;;
7267;SDS011;3675;43.276;27.962;2022-09-09T11:01:42;0.60;;;0.60;;
7267;SDS011;3675;43.276;27.962;2022-09-09T11:04:19;0.73;;;0.73;;
7267;SDS011;3675;43.276;27.962;2022-09-09T11:06:48;1.30;;;1.30;;
7267;SDS011;3675;43.276;27.962;2022-09-09T11:09:18;0.68;;;0.68;;
7267;SDS011;3675;43.276;27.962;2022-09-09T11:12:09;0.73;;;0.73;;
7267;SDS011;3675;43.276;27.962;2022-09-09T11:17:44;0.95;;;0.95;;
7267;SDS011;3675;43.276;27.962;2022-09-09T11:20:14;0.77;;;0.77;;
7267;SDS011;3675;43.276;27.962;2022-09-09T11:25:15;0.80;;;0.80;;
7267;SDS011;3675;43.276;27.962;2022-09-09T11:31:08;1.58;;;0.82;;
7267;SDS011;3675;43.276;27.962;2022-09-09T11:42:22;1.25;;;0.90;;
7267;SDS011;3675;43.276;27.962;2022-09-09T11:44:49;1.30;;;0.70;;
7267;SDS011;3675;43.276;27.962;2022-09-09T11:47:25;0.60;;;0.60;;
7267;SDS011;3675;43.276;27.962;2022-09-09T11:50:40;1.02;;;1.02;;
7267;SDS011;3675;43.276;27.962;2022-09-09T11:52:44;1.92;;;1.08;;
7267;SDS011;3675;43.276;27.962;2022-09-09T11:55:31;0.82;;;0.73;;
7267;SDS011;3675;43.276;27.962;2022-09-09T11:57:59;2.60;;;0.70;;
7267;SDS011;3675;43.276;27.962;2022-09-09T12:00:45;0.60;;;0.60;;
7267;SDS011;3675;43.276;27.962;2022-09-09T12:08:51;0.60;;;0.60;;
7267;SDS011;3675;43.276;27.962;2022-09-09T12:11:25;0.65;;;0.65;;
7267;SDS011;3675;43.276;27.962;2022-09-09T12:13:52;2.63;;;0.82;;
7267;SDS011;3675;43.276;27.962;2022-09-09T12:16:38;1.52;;;0.90;;
7267;SDS011;3675;43.276;27.962;2022-09-09T12:27:23;0.80;;;0.80;;
7267;SDS011;3675;43.276;27.962;2022-09-09T12:30:01;0.90;;;0.90;;
7267;SDS011;3675;43.276;27.962;2022-09-09T12:32:29;0.68;;;0.68;;
7267;SDS011;3675;43.276;27.962;2022-09-09T12:35:18;0.43;;;0.43;;
7267;SDS011;3675;43.276;27.962;2022-09-09T12:37:50;0.80;;;0.80;;
7267;SDS011;3675;43.276;27.962;2022-09-09T12:40:24;1.38;;;0.90;;
7267;SDS011;3675;43.276;27.962;2022-09-09T12:42:51;0.70;;;0.70;;
7267;SDS011;3675;43.276;27.962;2022-09-09T12:45:18;1.50;;;0.77;;
7267;SDS011;3675;43.276;27.962;2022-09-09T12:47:56;0.73;;;0.52;;
7267;SDS011;3675;43.276;27.962;2022-09-09T12:50:30;0.68;;;0.68;;
7267;SDS011;3675;43.276;27.962;2022-09-09T12:52:58;1.00;;;0.90;;
7267;SDS011;3675;43.276;27.962;2022-09-09T12:55:29;0.70;;;0.70;;
7267;SDS011;3675;43.276;27.962;2022-09-09T12:57:58;3.10;;;0.73;;
7267;SDS011;3675;43.276;27.962;2022-09-09T13:00:25;0.50;;;0.50;;
7267;SDS011;3675;43.276;27.962;2022-09-09T13:02:53;0.95;;;0.82;;
7267;SDS011;3675;43.276;27.962;2022-09-09T13:05:24;0.70;;;0.70;;
7267;SDS011;3675;43.276;27.962;2022-09-09T13:07:51;3.30;;;0.85;;
7267;SDS011;3675;43.276;27.962;2022-09-09T13:10:26;0.85;;;0.85;;
7267;SDS011;3675;43.276;27.962;2022-09-09T13:12:54;0.70;;;0.68;;
7267;SDS011;3675;43.276;27.962;2022-09-09T13:15:21;0.90;;;0.90;;
7267;SDS011;3675;43.276;27.962;2022-09-09T13:17:51;1.05;;;1.05;;
7267;SDS011;3675;43.276;27.962;2022-09-09T13:20:19;1.10;;;1.00;;
7267;SDS011;3675;43.276;27.962;2022-09-09T13:22:45;2.78;;;1.05;;
7267;SDS011;3675;43.276;27.962;2022-09-09T13:25:21;0.90;;;0.90;;
7267;SDS011;3675;43.276;27.962;2022-09-09T13:28:04;0.90;;;0.90;;
7267;SDS011;3675;43.276;27.962;2022-09-09T13:30:37;1.20;;;1.20;;
7267;SDS011;3675;43.276;27.962;2022-09-09T13:35:54;1.30;;;1.23;;
7267;SDS011;3675;43.276;27.962;2022-09-09T13:38:21;1.27;;;1.17;;
7267;SDS011;3675;43.276;27.962;2022-09-09T13:40:54;1.17;;;1.17;;
7267;SDS011;3675;43.276;27.962;2022-09-09T13:43:22;1.08;;;1.08;;
7267;SDS011;3675;43.276;27.962;2022-09-09T13:48:59;1.85;;;1.25;;
7267;SDS011;3675;43.276;27.962;2022-09-09T13:51:29;1.25;;;1.23;;
7267;SDS011;3675;43.276;27.962;2022-09-09T13:53:59;4.32;;;1.38;;
7267;SDS011;3675;43.276;27.962;2022-09-09T13:56:25;1.50;;;1.40;;
7267;SDS011;3675;43.276;27.962;2022-09-09T13:58:51;1.60;;;1.50;;
7267;SDS011;3675;43.276;27.962;2022-09-09T14:01:16;2.42;;;2.17;;
7267;SDS011;3675;43.276;27.962;2022-09-09T14:03:42;1.50;;;1.50;;
7267;SDS011;3675;43.276;27.962;2022-09-09T14:06:08;1.85;;;1.75;;
7267;SDS011;3675;43.276;27.962;2022-09-09T14:08:35;1.70;;;1.70;;
7267;SDS011;3675;43.276;27.962;2022-09-09T14:11:05;2.25;;;1.92;;
7267;SDS011;3675;43.276;27.962;2022-09-09T14:13:31;1.55;;;1.55;;
7267;SDS011;3675;43.276;27.962;2022-09-09T14:15:57;2.42;;;1.60;;
7267;SDS011;3675;43.276;27.962;2022-09-09T14:18:23;2.13;;;2.03;;
7267;SDS011;3675;43.276;27.962;2022-09-09T14:20:50;2.40;;;2.30;;
7267;SDS011;3675;43.276;27.962;2022-09-09T14:23:16;3.95;;;2.40;;
7267;SDS011;3675;43.276;27.962;2022-09-09T14:25:44;2.17;;;2.08;;
7267;SDS011;3675;43.276;27.962;2022-09-09T14:28:12;2.00;;;1.90;;
7267;SDS011;3675;43.276;27.962;2022-09-09T14:30:42;1.85;;;1.70;;
7267;SDS011;3675;43.276;27.962;2022-09-09T14:33:10;2.83;;;1.90;;
7267;SDS011;3675;43.276;27.962;2022-09-09T14:35:36;2.13;;;1.95;;
7267;SDS011;3675;43.276;27.962;2022-09-09T14:38:02;2.03;;;1.90;;
7267;SDS011;3675;43.276;27.962;2022-09-09T14:40:29;2.05;;;1.85;;
7267;SDS011;3675;43.276;27.962;2022-09-09T14:42:54;1.50;;;1.40;;
7267;SDS011;3675;43.276;27.962;2022-09-09T14:45:21;4.72;;;1.92;;
7267;SDS011;3675;43.276;27.962;2022-09-09T14:47:49;2.67;;;1.55;;
7267;SDS011;3675;43.276;27.962;2022-09-09T14:50:14;1.98;;;1.80;;
7267;SDS011;3675;43.276;27.962;2022-09-09T14:52:40;1.83;;;1.75;;
7267;SDS011;3675;43.276;27.962;2022-09-09T14:55:08;2.38;;;2.00;;
7267;SDS011;3675;43.276;27.962;2022-09-09T14:57:34;2.40;;;2.10;;
7267;SDS011;3675;43.276;27.962;2022-09-09T15:00:01;2.15;;;2.05;;
7267;SDS011;3675;43.276;27.962;2022-09-09T15:02:28;1.77;;;1.70;;
7267;SDS011;3675;43.276;27.962;2022-09-09T15:04:55;4.05;;;1.98;;
7267;SDS011;3675;43.276;27.962;2022-09-09T15:07:23;1.90;;;1.55;;
7267;SDS011;3675;43.276;27.962;2022-09-09T15:09:49;1.70;;;1.60;;
7267;SDS011;3675;43.276;27.962;2022-09-09T15:12:14;4.53;;;2.60;;
7267;SDS011;3675;43.276;27.962;2022-09-09T15:14:40;1.60;;;1.60;;
7267;SDS011;3675;43.276;27.962;2022-09-09T15:17:05;4.55;;;1.60;;
7267;SDS011;3675;43.276;27.962;2022-09-09T15:19:31;1.38;;;1.38;;
7267;SDS011;3675;43.276;27.962;2022-09-09T15:21:57;2.20;;;2.10;;
7267;SDS011;3675;43.276;27.962;2022-09-09T15:24:23;1.92;;;1.85;;
7267;SDS011;3675;43.276;27.962;2022-09-09T15:26:51;2.13;;;1.98;;
7267;SDS011;3675;43.276;27.962;2022-09-09T15:29:16;2.13;;;2.00;;
7267;SDS011;3675;43.276;27.962;2022-09-09T15:31:42;2.03;;;1.88;;
7267;SDS011;3675;43.276;27.962;2022-09-09T15:34:07;1.60;;;1.60;;
7267;SDS011;3675;43.276;27.962;2022-09-09T15:36:37;1.30;;;1.30;;
7267;SDS011;3675;43.276;27.962;2022-09-09T15:39:07;2.28;;;2.17;;
7267;SDS011;3675;43.276;27.962;2022-09-09T15:41:38;2.28;;;2.17;;
7267;SDS011;3675;43.276;27.962;2022-09-09T15:44:04;2.20;;;2.00;;
7267;SDS011;3675;43.276;27.962;2022-09-09T15:46:31;2.42;;;2.22;;
7267;SDS011;3675;43.276;27.962;2022-09-09T15:51:35;1.65;;;1.55;;
7267;SDS011;3675;43.276;27.962;2022-09-09T15:54:02;1.67;;;1.58;;
7267;SDS011;3675;43.276;27.962;2022-09-09T15:56:28;2.10;;;1.95;;
7267;SDS011;3675;43.276;27.962;2022-09-09T15:58:58;2.03;;;1.92;;
7267;SDS011;3675;43.276;27.962;2022-09-09T16:01:24;1.70;;;1.60;;
7267;SDS011;3675;43.276;27.962;2022-09-09T16:03:51;2.08;;;1.88;;
7267;SDS011;3675;43.276;27.962;2022-09-09T16:06:18;1.98;;;1.88;;
7267;SDS011;3675;43.276;27.962;2022-09-09T16:08:46;2.17;;;2.08;;
7267;SDS011;3675;43.276;27.962;2022-09-09T16:11:22;2.35;;;2.17;;
7267;SDS011;3675;43.276;27.962;2022-09-09T16:13:50;2.38;;;2.28;;
7267;SDS011;3675;43.276;27.962;2022-09-09T16:16:18;2.30;;;2.20;;
7267;SDS011;3675;43.276;27.962;2022-09-09T16:18:48;3.25;;;2.17;;
7267;SDS011;3675;43.276;27.962;2022-09-09T16:21:17;1.77;;;1.77;;
7267;SDS011;3675;43.276;27.962;2022-09-09T16:23:43;2.33;;;2.22;;
7267;SDS011;3675;43.276;27.962;2022-09-09T16:26:13;2.47;;;1.90;;
7267;SDS011;3675;43.276;27.962;2022-09-09T16:28:39;1.85;;;1.83;;
7267;SDS011;3675;43.276;27.962;2022-09-09T16:31:10;2.30;;;2.20;;
7267;SDS011;3675;43.276;27.962;2022-09-09T16:33:36;2.13;;;2.03;;
7267;SDS011;3675;43.276;27.962;2022-09-09T16:36:09;2.55;;;2.35;;
7267;SDS011;3675;43.276;27.962;2022-09-09T16:38:36;2.20;;;2.10;;
7267;SDS011;3675;43.276;27.962;2022-09-09T16:41:02;2.03;;;1.92;;
7267;SDS011;3675;43.276;27.962;2022-09-09T16:43:31;1.90;;;1.80;;
7267;SDS011;3675;43.276;27.962;2022-09-09T16:46:00;2.33;;;2.22;;
7267;SDS011;3675;43.276;27.962;2022-09-09T16:48:27;6.25;;;2.45;;
7267;SDS011;3675;43.276;27.962;2022-09-09T16:51:04;2.83;;;2.63;;
7267;SDS011;3675;43.276;27.962;2022-09-09T16:53:35;2.20;;;2.00;;
7267;SDS011;3675;43.276;27.962;2022-09-09T16:56:07;3.50;;;2.17;;
7267;SDS011;3675;43.276;27.962;2022-09-09T16:58:33;2.75;;;2.60;;
7267;SDS011;3675;43.276;27.962;2022-09-09T17:01:00;4.03;;;2.28;;
7267;SDS011;3675;43.276;27.962;2022-09-09T17:03:27;2.35;;;2.17;;
7267;SDS011;3675;43.276;27.962;2022-09-09T17:05:52;3.08;;;2.75;;
7267;SDS011;3675;43.276;27.962;2022-09-09T17:08:18;2.80;;;2.65;;
7267;SDS011;3675;43.276;27.962;2022-09-09T17:10:44;2.30;;;2.20;;
7267;SDS011;3675;43.276;27.962;2022-09-09T17:13:10;2.45;;;2.25;;
7267;SDS011;3675;43.276;27.962;2022-09-09T17:15:41;2.15;;;2.05;;
7267;SDS011;3675;43.276;27.962;2022-09-09T17:18:10;2.13;;;2.03;;
7267;SDS011;3675;43.276;27.962;2022-09-09T17:20:39;2.45;;;2.35;;
7267;SDS011;3675;43.276;27.962;2022-09-09T17:23:08;2.13;;;2.03;;
7267;SDS011;3675;43.276;27.962;2022-09-09T17:25:34;2.50;;;2.40;;
7267;SDS011;3675;43.276;27.962;2022-09-09T17:28:00;4.38;;;2.38;;
7267;SDS011;3675;43.276;27.962;2022-09-09T17:30:28;2.25;;;2.15;;
7267;SDS011;3675;43.276;27.962;2022-09-09T17:32:55;2.80;;;1.95;;
7267;SDS011;3675;43.276;27.962;2022-09-09T17:35:20;1.70;;;1.70;;
7267;SDS011;3675;43.276;27.962;2022-09-09T17:37:46;2.40;;;2.20;;
7267;SDS011;3675;43.276;27.962;2022-09-09T17:40:12;4.88;;;2.22;;
7267;SDS011;3675;43.276;27.962;2022-09-09T17:42:38;2.42;;;2.00;;
7267;SDS011;3675;43.276;27.962;2022-09-09T17:45:05;2.20;;;2.10;;
7267;SDS011;3675;43.276;27.962;2022-09-09T17:47:31;1.88;;;1.77;;